Time;durP1;ratioP1;P1;durP2;ratioP2;P2;SDS_P1;SDS_P2;PMS_P1;PMS_P2;Temp;Humidity;BMP_temperature;BMP_pressure;BME280_temperature;BME280_humidity;BME280_pressure;Samples;Min_cycle;Max_cycle;Signal;HPM_P1;HPM_P2
2022/09/13 00:00:52;;;;;;;2.53;1.50;;;;;;;;;;4998342;28;20034;-85
2022/09/13 00:03:19;;;;;;;1.58;1.48;;;;;;;;;;4997295;28;20030;-86
2022/09/13 00:05:45;;;;;;;5.47;1.60;;;;;;;;;;4997969;28;20030;-86
2022/09/13 00:08:10;;;;;;;4.10;1.40;;;;;;;;;;4998579;28;20038;-86
2022/09/13 00:10:38;;;;;;;2.47;1.60;;;;;;;;;;4996585;28;20395;-85
2022/09/13 00:13:05;;;;;;;1.90;1.60;;;;;;;;;;4997374;28;20035;-86
2022/09/13 00:15:31;;;;;;;2.28;1.55;;;;;;;;;;4997695;28;20121;-86
2022/09/13 00:17:57;;;;;;;3.65;1.67;;;;;;;;;;4998571;28;20150;-86
2022/09/13 00:20:22;;;;;;;1.83;1.60;;;;;;;;;;4998850;28;20086;-86
2022/09/13 00:22:48;;;;;;;2.78;1.50;;;;;;;;;;4996857;28;20045;-86
2022/09/13 00:25:14;;;;;;;3.40;1.65;;;;;;;;;;4996655;28;20037;-85
2022/09/13 00:27:39;;;;;;;2.08;1.60;;;;;;;;;;4997460;28;20046;-85
2022/09/13 00:30:06;;;;;;;1.80;1.42;;;;;;;;;;4997870;28;20402;-85
2022/09/13 00:32:33;;;;;;;1.70;1.50;;;;;;;;;;4998529;28;20039;-85
2022/09/13 00:35:00;;;;;;;1.77;1.50;;;;;;;;;;4999450;28;20042;-86
2022/09/13 00:37:25;;;;;;;2.72;1.38;;;;;;;;;;5002068;28;20535;-86
2022/09/13 00:39:51;;;;;;;1.73;1.40;;;;;;;;;;5002811;28;20116;-85
2022/09/13 00:42:17;;;;;;;1.98;1.60;;;;;;;;;;5002236;28;20038;-84
2022/09/13 00:44:58;;;;;;;3.05;1.67;;;;;;;;;;5002383;28;20116;-86
2022/09/13 00:47:40;;;;;;;4.90;1.60;;;;;;;;;;5002692;28;20041;-85
2022/09/13 00:50:32;;;;;;;7.13;1.93;;;;;;;;;;5002424;28;20042;-85
2022/09/13 00:53:04;;;;;;;1.50;1.40;;;;;;;;;;5001800;28;20042;-86
2022/09/13 00:55:35;;;;;;;4.07;1.60;;;;;;;;;;5001874;28;20034;-86
2022/09/13 00:58:12;;;;;;;2.40;1.80;;;;;;;;;;5002043;28;20038;-86
2022/09/13 01:00:39;;;;;;;2.95;1.73;;;;;;;;;;5002358;28;20034;-86
2022/09/13 01:03:10;;;;;;;2.63;1.60;;;;;;;;;;5001860;28;20030;-85
2022/09/13 01:05:41;;;;;;;3.03;1.38;;;;;;;;;;5004208;28;20045;-85
2022/09/13 01:08:13;;;;;;;5.00;1.63;;;;;;;;;;5001609;28;20376;-85
2022/09/13 01:10:40;;;;;;;4.38;1.67;;;;;;;;;;4999204;28;20038;-85
2022/09/13 01:13:13;;;;;;;2.75;1.42;;;;;;;;;;5001476;28;20035;-86
2022/09/13 01:15:42;;;;;;;3.25;1.48;;;;;;;;;;5001463;28;20042;-86
2022/09/13 01:18:09;;;;;;;1.92;1.63;;;;;;;;;;5001727;28;20038;-85
2022/09/13 01:21:05;;;;;;;1.70;1.50;;;;;;;;;;5000645;28;20041;-86
2022/09/13 01:24:45;;;;;;;1.88;1.58;;;;;;;;;;5000705;28;20042;-86
2022/09/13 01:27:22;;;;;;;3.53;1.60;;;;;;;;;;4905251;29;20045;-85
2022/09/13 01:30:15;;;;;;;1.60;1.30;;;;;;;;;;4941913;29;20063;-85
2022/09/13 01:32:49;;;;;;;3.28;1.50;;;;;;;;;;4984260;28;20046;-85
2022/09/13 01:35:26;;;;;;;1.73;1.50;;;;;;;;;;5000359;28;20034;-85
2022/09/13 01:37:57;;;;;;;3.95;1.60;;;;;;;;;;4999939;28;20035;-85
2022/09/13 01:40:47;;;;;;;2.67;1.48;;;;;;;;;;5001316;28;20038;-85
2022/09/13 01:43:32;;;;;;;2.03;1.42;;;;;;;;;;5000542;28;20030;-86
2022/09/13 01:46:16;;;;;;;2.78;1.40;;;;;;;;;;4998344;28;20125;-86
2022/09/13 01:49:05;;;;;;;4.22;1.40;;;;;;;;;;4999916;28;20082;-85
2022/09/13 01:51:42;;;;;;;4.90;1.30;;;;;;;;;;4999701;28;20042;-86
2022/09/13 01:54:26;;;;;;;4.50;1.48;;;;;;;;;;5000071;28;20049;-85
2022/09/13 01:57:02;;;;;;;2.17;1.60;;;;;;;;;;5015749;28;20034;-85
2022/09/13 02:00:02;;;;;;;2.50;1.48;;;;;;;;;;5000932;28;20042;-86
2022/09/13 02:03:02;;;;;;;3.92;1.55;;;;;;;;;;4980826;28;20134;-86
2022/09/13 02:05:54;;;;;;;2.38;1.60;;;;;;;;;;5015025;28;20039;-86
2022/09/13 02:08:57;;;;;;;1.70;1.38;;;;;;;;;;4999573;28;20049;-85
2022/09/13 02:11:23;;;;;;;4.68;1.42;;;;;;;;;;4998085;28;20057;-85
2022/09/13 02:14:04;;;;;;;2.60;1.77;;;;;;;;;;4999641;28;20073;-85
2022/09/13 02:16:36;;;;;;;4.30;1.48;;;;;;;;;;5000107;28;20034;-85
2022/09/13 02:19:09;;;;;;;2.85;1.40;;;;;;;;;;4999935;28;20154;-85
2022/09/13 02:21:38;;;;;;;4.40;1.50;;;;;;;;;;5000191;28;20594;-85
2022/09/13 02:24:12;;;;;;;2.72;1.50;;;;;;;;;;4999823;28;20033;-85
2022/09/13 02:26:40;;;;;;;1.88;1.50;;;;;;;;;;5014656;28;20566;-85
2022/09/13 02:29:12;;;;;;;1.58;1.30;;;;;;;;;;4999567;28;20487;-85
2022/09/13 02:31:46;;;;;;;2.20;1.48;;;;;;;;;;5000116;28;20044;-85
2022/09/13 02:34:20;;;;;;;1.98;1.40;;;;;;;;;;4999692;28;20098;-85
2022/09/13 02:36:48;;;;;;;1.70;1.38;;;;;;;;;;5000173;28;20384;-86
2022/09/13 02:39:18;;;;;;;1.75;1.40;;;;;;;;;;4999966;28;20053;-86
2022/09/13 02:42:16;;;;;;;3.53;1.58;;;;;;;;;;4999881;28;20050;-85
2022/09/13 02:44:48;;;;;;;3.78;1.60;;;;;;;;;;4987415;28;20053;-85
2022/09/13 02:47:36;;;;;;;1.50;1.40;;;;;;;;;;5000057;28;20145;-85
2022/09/13 02:50:23;;;;;;;2.03;1.50;;;;;;;;;;4999523;28;20097;-86
2022/09/13 02:53:01;;;;;;;2.83;1.30;;;;;;;;;;4999480;28;20030;-85
2022/09/13 02:55:52;;;;;;;3.90;1.38;;;;;;;;;;4997704;28;20034;-85
2022/09/13 02:58:29;;;;;;;1.92;1.50;;;;;;;;;;4998107;28;20403;-85
2022/09/13 03:00:55;;;;;;;2.22;1.30;;;;;;;;;;4998145;28;20408;-85
2022/09/13 03:03:21;;;;;;;3.05;1.33;;;;;;;;;;4998301;28;20033;-86
2022/09/13 03:05:46;;;;;;;2.00;1.35;;;;;;;;;;4997769;28;20038;-84
2022/09/13 03:08:14;;;;;;;1.95;1.13;;;;;;;;;;4999357;28;20046;-86
2022/09/13 03:11:28;;;;;;;2.53;1.50;;;;;;;;;;4996240;28;20097;-85
2022/09/13 03:14:06;;;;;;;2.13;1.50;;;;;;;;;;4997690;28;20045;-86
2022/09/13 03:17:09;;;;;;;1.77;1.30;;;;;;;;;;4997721;28;20066;-85
2022/09/13 03:20:06;;;;;;;2.97;1.70;;;;;;;;;;4998429;28;20038;-85
2022/09/13 03:22:44;;;;;;;1.70;1.42;;;;;;;;;;4999064;28;20041;-86
2022/09/13 03:25:40;;;;;;;2.13;1.33;;;;;;;;;;4998619;28;20037;-86
2022/09/13 03:28:17;;;;;;;1.90;1.30;;;;;;;;;;4999186;28;20034;-86
2022/09/13 03:30:50;;;;;;;3.58;1.50;;;;;;;;;;4998357;28;20039;-84
2022/09/13 03:33:43;;;;;;;2.22;1.50;;;;;;;;;;4997747;28;20048;-86
2022/09/13 03:36:20;;;;;;;1.55;1.30;;;;;;;;;;4998200;28;20064;-85
2022/09/13 03:38:58;;;;;;;2.83;1.40;;;;;;;;;;4999060;28;20534;-84
2022/09/13 03:41:28;;;;;;;2.67;1.30;;;;;;;;;;4997247;28;20030;-85
2022/09/13 03:44:04;;;;;;;3.40;1.40;;;;;;;;;;4998143;28;20671;-86
2022/09/13 03:46:35;;;;;;;2.15;1.40;;;;;;;;;;4998338;28;20491;-85
2022/09/13 03:49:08;;;;;;;1.92;1.30;;;;;;;;;;4997890;28;20481;-85
2022/09/13 03:51:35;;;;;;;2.17;1.48;;;;;;;;;;4998337;28;20027;-86
2022/09/13 03:54:05;;;;;;;2.13;1.40;;;;;;;;;;4997856;28;20046;-85
2022/09/13 03:56:31;;;;;;;2.10;1.33;;;;;;;;;;4997043;28;20135;-85
2022/09/13 03:58:56;;;;;;;2.42;1.40;;;;;;;;;;4998403;28;20034;-85
2022/09/13 04:01:24;;;;;;;1.67;1.30;;;;;;;;;;4980858;28;20031;-86
2022/09/13 04:03:49;;;;;;;1.85;1.20;;;;;;;;;;4997781;28;20073;-85
2022/09/13 04:06:15;;;;;;;2.10;1.30;;;;;;;;;;4997688;28;20049;-85
2022/09/13 04:08:41;;;;;;;1.92;1.45;;;;;;;;;;4997962;28;20034;-84
2022/09/13 04:11:08;;;;;;;1.75;1.35;;;;;;;;;;4996183;28;20041;-85
2022/09/13 04:13:35;;;;;;;2.17;1.40;;;;;;;;;;4998538;28;20581;-85
2022/09/13 04:16:01;;;;;;;1.88;1.40;;;;;;;;;;4998560;28;20045;-86
2022/09/13 04:18:28;;;;;;;2.95;1.50;;;;;;;;;;4998297;28;20094;-85
2022/09/13 04:20:58;;;;;;;2.88;2.00;;;;;;;;;;4997753;28;20539;-85
2022/09/13 04:23:25;;;;;;;2.35;1.40;;;;;;;;;;4997655;28;20031;-86
2022/09/13 04:25:51;;;;;;;3.72;1.50;;;;;;;;;;4996087;28;20054;-86
2022/09/13 04:28:19;;;;;;;3.63;1.63;;;;;;;;;;4998113;28;20033;-84
2022/09/13 04:30:46;;;;;;;4.40;2.53;;;;;;;;;;4997691;28;20057;-86
2022/09/13 04:33:12;;;;;;;2.45;1.80;;;;;;;;;;4997757;28;20034;-85
2022/09/13 04:35:40;;;;;;;3.95;1.40;;;;;;;;;;4997324;28;20038;-86
2022/09/13 04:38:06;;;;;;;2.95;1.40;;;;;;;;;;4997695;28;20111;-86
2022/09/13 04:40:33;;;;;;;2.60;1.60;;;;;;;;;;4997902;28;20058;-87
2022/09/13 04:43:02;;;;;;;2.42;1.65;;;;;;;;;;4996142;28;20038;-85
2022/09/13 04:45:28;;;;;;;2.08;1.42;;;;;;;;;;4996167;28;20045;-85
2022/09/13 04:47:55;;;;;;;1.70;1.40;;;;;;;;;;4997268;28;20066;-84
2022/09/13 04:50:22;;;;;;;4.10;1.40;;;;;;;;;;4997563;28;20045;-85
2022/09/13 04:52:49;;;;;;;2.38;1.35;;;;;;;;;;4997540;28;20054;-85
2022/09/13 04:55:14;;;;;;;2.97;1.75;;;;;;;;;;4996483;28;20061;-86
2022/09/13 04:57:40;;;;;;;1.85;1.30;;;;;;;;;;4997910;28;20427;-86
2022/09/13 05:00:07;;;;;;;1.90;1.70;;;;;;;;;;4997909;28;20061;-86
2022/09/13 05:02:32;;;;;;;3.60;1.52;;;;;;;;;;4996684;28;20077;-85
2022/09/13 05:04:58;;;;;;;7.95;2.17;;;;;;;;;;4997308;28;20022;-86
2022/09/13 05:07:23;;;;;;;4.93;1.70;;;;;;;;;;4997287;28;20034;-85
2022/09/13 05:09:49;;;;;;;2.03;1.48;;;;;;;;;;4996719;28;20049;-85
2022/09/13 05:12:14;;;;;;;4.10;1.40;;;;;;;;;;4996734;28;20077;-86
2022/09/13 05:14:40;;;;;;;2.28;1.35;;;;;;;;;;4997196;28;20061;-85
2022/09/13 05:17:05;;;;;;;3.60;1.40;;;;;;;;;;4996247;28;20391;-86
2022/09/13 05:19:31;;;;;;;4.05;1.30;;;;;;;;;;4996458;28;20038;-86
2022/09/13 05:21:56;;;;;;;1.98;1.52;;;;;;;;;;4998990;28;20034;-84
2022/09/13 05:24:22;;;;;;;3.45;1.38;;;;;;;;;;5000994;28;20019;-86
2022/09/13 05:26:47;;;;;;;2.38;1.30;;;;;;;;;;5000720;28;20030;-85
2022/09/13 05:29:13;;;;;;;2.13;1.30;;;;;;;;;;5000567;28;20133;-84
2022/09/13 05:31:40;;;;;;;2.38;1.33;;;;;;;;;;5001573;28;20030;-84
2022/09/13 05:34:09;;;;;;;3.63;1.20;;;;;;;;;;4999345;28;20039;-86
2022/09/13 05:36:35;;;;;;;3.67;1.30;;;;;;;;;;5001021;28;20037;-86
2022/09/13 05:39:02;;;;;;;2.50;1.40;;;;;;;;;;4999732;28;20113;-86
2022/09/13 05:41:27;;;;;;;2.97;1.30;;;;;;;;;;5000342;28;20038;-84
2022/09/13 05:43:53;;;;;;;1.98;1.30;;;;;;;;;;5000877;28;20052;-85
2022/09/13 05:46:20;;;;;;;2.38;1.20;;;;;;;;;;5000413;28;20041;-85
2022/09/13 05:48:47;;;;;;;1.80;1.30;;;;;;;;;;4999956;28;20254;-85
2022/09/13 05:51:14;;;;;;;1.63;1.27;;;;;;;;;;5001032;28;20030;-85
2022/09/13 05:53:42;;;;;;;4.05;1.40;;;;;;;;;;5001242;28;20061;-86
2022/09/13 05:56:09;;;;;;;2.47;1.20;;;;;;;;;;4998915;28;20038;-86
2022/09/13 05:58:40;;;;;;;1.80;1.30;;;;;;;;;;5002000;28;20038;-86
2022/09/13 06:01:06;;;;;;;2.33;1.40;;;;;;;;;;5000947;28;20069;-86
2022/09/13 06:03:31;;;;;;;1.60;1.20;;;;;;;;;;5001005;28;20026;-85
2022/09/13 06:05:57;;;;;;;1.67;1.20;;;;;;;;;;4998814;28;20039;-85
2022/09/13 06:08:28;;;;;;;1.45;1.20;;;;;;;;;;4999313;28;20046;-85
2022/09/13 06:10:58;;;;;;;3.28;1.30;;;;;;;;;;4999829;28;20056;-85
2022/09/13 06:13:24;;;;;;;3.53;1.15;;;;;;;;;;5017222;28;20031;-87
2022/09/13 06:15:50;;;;;;;2.10;1.33;;;;;;;;;;4998456;28;20064;-85
2022/09/13 06:18:16;;;;;;;1.67;1.35;;;;;;;;;;4999646;28;20036;-85
2022/09/13 06:20:42;;;;;;;1.83;1.30;;;;;;;;;;5000094;28;20065;-87
2022/09/13 06:23:08;;;;;;;1.95;1.17;;;;;;;;;;4998580;28;20046;-85
2022/09/13 06:25:33;;;;;;;1.50;1.25;;;;;;;;;;4998701;28;20094;-85
2022/09/13 06:27:59;;;;;;;2.45;1.33;;;;;;;;;;4998198;28;20045;-85
2022/09/13 06:30:24;;;;;;;4.70;1.33;;;;;;;;;;4997802;28;20050;-85
2022/09/13 06:32:49;;;;;;;3.50;1.20;;;;;;;;;;4997650;28;20045;-85
2022/09/13 06:35:15;;;;;;;2.72;1.20;;;;;;;;;;4996438;28;20511;-85
2022/09/13 06:37:41;;;;;;;1.92;1.10;;;;;;;;;;5010525;28;20038;-85
2022/09/13 06:40:06;;;;;;;3.63;1.27;;;;;;;;;;5017690;28;20041;-85
2022/09/13 06:42:34;;;;;;;4.30;1.30;;;;;;;;;;5017696;28;20029;-85
2022/09/13 06:44:59;;;;;;;2.70;1.30;;;;;;;;;;5017209;28;20120;-85
2022/09/13 06:47:24;;;;;;;2.20;1.30;;;;;;;;;;5017763;28;20080;-85
2022/09/13 06:49:50;;;;;;;1.80;1.30;;;;;;;;;;5017940;28;20042;-83
2022/09/13 06:52:15;;;;;;;2.88;1.00;;;;;;;;;;5019191;28;20034;-86
2022/09/13 06:54:41;;;;;;;1.30;1.20;;;;;;;;;;5016508;28;20037;-86
2022/09/13 06:57:06;;;;;;;2.50;1.20;;;;;;;;;;5018496;28;20037;-87
2022/09/13 06:59:33;;;;;;;2.70;1.20;;;;;;;;;;5018151;28;20049;-86
2022/09/13 07:01:59;;;;;;;3.42;1.60;;;;;;;;;;5017740;28;20022;-86
2022/09/13 07:04:25;;;;;;;2.78;1.30;;;;;;;;;;5017992;28;20091;-87
2022/09/13 07:06:50;;;;;;;4.60;1.30;;;;;;;;;;5018284;28;20041;-86
2022/09/13 07:09:20;;;;;;;7.35;1.20;;;;;;;;;;5018975;28;20055;-86
2022/09/13 07:11:48;;;;;;;3.85;1.10;;;;;;;;;;5018209;28;20045;-85
2022/09/13 07:14:19;;;;;;;2.58;1.30;;;;;;;;;;5015976;28;20034;-87
2022/09/13 07:16:45;;;;;;;3.78;1.80;;;;;;;;;;5017031;28;20038;-87
2022/09/13 07:19:21;;;;;;;4.88;2.55;;;;;;;;;;5017845;28;20038;-87
2022/09/13 07:21:48;;;;;;;3.50;1.50;;;;;;;;;;5016438;28;20069;-87
2022/09/13 07:24:14;;;;;;;2.60;1.70;;;;;;;;;;5016740;28;20037;-86
2022/09/13 07:26:40;;;;;;;3.10;1.25;;;;;;;;;;5016595;28;20022;-87
2022/09/13 07:29:09;;;;;;;3.38;1.23;;;;;;;;;;5016593;28;20034;-87
2022/09/13 07:31:37;;;;;;;1.33;1.08;;;;;;;;;;5016827;28;20483;-87
2022/09/13 07:34:05;;;;;;;2.72;1.10;;;;;;;;;;5016903;28;20038;-87
2022/09/13 07:36:33;;;;;;;1.13;0.90;;;;;;;;;;5016930;28;20457;-87
2022/09/13 07:38:58;;;;;;;3.83;1.05;;;;;;;;;;5016515;28;20121;-87
2022/09/13 07:41:26;;;;;;;3.33;1.20;;;;;;;;;;5016086;28;20053;-87
2022/09/13 07:43:52;;;;;;;2.97;0.82;;;;;;;;;;5017985;28;20038;-87
2022/09/13 07:46:25;;;;;;;2.22;0.90;;;;;;;;;;5016967;28;20057;-87
2022/09/13 07:48:52;;;;;;;2.47;1.33;;;;;;;;;;5018673;28;20061;-87
2022/09/13 07:51:24;;;;;;;4.70;1.20;;;;;;;;;;5017645;28;20041;-87
2022/09/13 07:53:51;;;;;;;2.33;1.00;;;;;;;;;;5016551;28;20104;-86
2022/09/13 07:56:20;;;;;;;1.50;1.00;;;;;;;;;;5015722;28;20029;-86
2022/09/13 07:58:47;;;;;;;3.35;1.10;;;;;;;;;;5016575;28;20042;-87
2022/09/13 08:01:22;;;;;;;1.27;0.90;;;;;;;;;;5014867;28;20479;-87
2022/09/13 08:03:53;;;;;;;3.28;1.73;;;;;;;;;;5016139;28;20041;-87
2022/09/13 08:06:19;;;;;;;2.55;1.20;;;;;;;;;;5015117;28;20038;-86
2022/09/13 08:08:44;;;;;;;4.68;1.80;;;;;;;;;;5014753;28;20128;-87
2022/09/13 08:11:20;;;;;;;1.33;1.10;;;;;;;;;;5015026;28;20048;-87
2022/09/13 08:13:47;;;;;;;1.80;1.15;;;;;;;;;;5015306;28;20095;-87
2022/09/13 08:16:13;;;;;;;3.10;1.10;;;;;;;;;;5015002;28;20080;-87
2022/09/13 08:18:46;;;;;;;2.55;0.90;;;;;;;;;;5014683;28;20033;-87
2022/09/13 08:21:13;;;;;;;1.30;1.00;;;;;;;;;;5015015;28;20053;-88
2022/09/13 08:23:38;;;;;;;2.20;0.90;;;;;;;;;;5017036;28;20034;-87
2022/09/13 08:26:06;;;;;;;4.45;1.00;;;;;;;;;;5019874;28;20040;-87
2022/09/13 08:28:33;;;;;;;3.03;0.88;;;;;;;;;;5018720;28;20116;-87
2022/09/13 08:31:06;;;;;;;1.63;0.90;;;;;;;;;;5016929;28;20034;-87
2022/09/13 08:33:32;;;;;;;3.08;0.90;;;;;;;;;;5017409;28;20116;-87
2022/09/13 08:35:58;;;;;;;1.02;0.93;;;;;;;;;;5017424;28;20061;-87
2022/09/13 08:38:23;;;;;;;3.05;1.27;;;;;;;;;;5018012;28;20026;-87
2022/09/13 08:40:55;;;;;;;2.45;1.10;;;;;;;;;;5016848;28;20100;-87
2022/09/13 08:43:38;;;;;;;1.83;0.90;;;;;;;;;;5016088;28;20038;-87
2022/09/13 08:46:05;;;;;;;1.63;1.00;;;;;;;;;;5016983;28;20036;-88
2022/09/13 08:48:35;;;;;;;1.30;0.80;;;;;;;;;;5017657;28;20494;-87
2022/09/13 08:51:06;;;;;;;2.67;0.90;;;;;;;;;;5018564;28;20056;-87
2022/09/13 08:53:43;;;;;;;3.92;1.80;;;;;;;;;;5016718;28;20125;-88
2022/09/13 08:56:11;;;;;;;2.00;1.10;;;;;;;;;;5019823;28;20065;-87
2022/09/13 08:58:48;;;;;;;1.02;0.70;;;;;;;;;;5022607;28;20038;-88
2022/09/13 09:01:26;;;;;;;1.08;0.80;;;;;;;;;;5021324;28;20037;-88
2022/09/13 09:04:19;;;;;;;2.50;0.82;;;;;;;;;;5022425;28;20125;-88
2022/09/13 09:06:44;;;;;;;0.87;0.80;;;;;;;;;;5019951;28;20041;-88
2022/09/13 09:09:17;;;;;;;1.50;0.90;;;;;;;;;;5021039;28;20721;-88
2022/09/13 09:11:58;;;;;;;1.70;0.90;;;;;;;;;;5019912;28;20054;-88
2022/09/13 09:14:26;;;;;;;2.45;0.73;;;;;;;;;;5022617;28;20041;-88
2022/09/13 09:16:57;;;;;;;1.02;0.80;;;;;;;;;;5021812;28;20073;-88
2022/09/13 09:19:41;;;;;;;1.90;1.05;;;;;;;;;;5023607;28;20030;-87
2022/09/13 09:22:20;;;;;;;1.92;0.90;;;;;;;;;;5022105;28;20041;-87
2022/09/13 09:24:50;;;;;;;2.70;1.00;;;;;;;;;;5003363;28;20125;-87
2022/09/13 09:27:18;;;;;;;1.98;1.00;;;;;;;;;;5021167;28;20030;-87
2022/09/13 09:29:46;;;;;;;2.05;0.90;;;;;;;;;;5022565;28;20168;-88
2022/09/13 09:32:24;;;;;;;1.27;0.80;;;;;;;;;;5020907;28;20431;-87
2022/09/13 09:35:08;;;;;;;1.52;0.88;;;;;;;;;;5020990;28;20034;-88
2022/09/13 09:37:36;;;;;;;1.38;0.80;;;;;;;;;;5021267;28;20046;-88
2022/09/13 09:40:07;;;;;;;1.17;0.90;;;;;;;;;;5019491;28;20042;-88
2022/09/13 09:42:43;;;;;;;1.67;0.90;;;;;;;;;;5020682;28;20069;-88
2022/09/13 09:45:30;;;;;;;1.15;1.00;;;;;;;;;;5019360;28;20030;-87
2022/09/13 09:48:03;;;;;;;3.55;1.10;;;;;;;;;;5019818;28;20128;-88
2022/09/13 09:50:37;;;;;;;3.10;1.00;;;;;;;;;;5001394;28;20058;-87
2022/09/13 09:53:09;;;;;;;2.47;0.80;;;;;;;;;;5018891;28;20041;-88
2022/09/13 09:55:54;;;;;;;2.00;0.85;;;;;;;;;;5015388;28;20129;-87
2022/09/13 09:58:50;;;;;;;1.55;0.82;;;;;;;;;;5034718;28;20569;-88
2022/09/13 10:01:26;;;;;;;1.67;0.90;;;;;;;;;;5004642;28;20046;-88
2022/09/13 10:04:10;;;;;;;3.75;1.00;;;;;;;;;;5020262;28;20029;-88
2022/09/13 10:06:39;;;;;;;;;;;;;;;;;;5019326;28;20034;-88
2022/09/13 10:09:21;;;;;;;1.17;0.90;;;;;;;;;;5019875;28;19920;-87
2022/09/13 10:11:50;;;;;;;1.92;1.10;;;;;;;;;;5018669;28;20030;-88
2022/09/13 10:14:33;;;;;;;3.33;0.70;;;;;;;;;;5021801;28;20040;-85
2022/09/13 10:17:23;;;;;;;6.07;1.00;;;;;;;;;;5024522;28;20118;-84
2022/09/13 10:20:00;;;;;;;0.88;0.80;;;;;;;;;;5027571;28;20033;-86
2022/09/13 10:22:29;;;;;;;2.85;1.00;;;;;;;;;;5023667;28;20038;-86
2022/09/13 10:25:14;;;;;;;2.25;1.00;;;;;;;;;;5024673;28;20052;-86
2022/09/13 10:27:46;;;;;;;2.42;0.77;;;;;;;;;;5024382;28;20069;-86
2022/09/13 10:30:45;;;;;;;1.25;0.95;;;;;;;;;;5023718;28;20038;-86
2022/09/13 10:33:35;;;;;;;1.00;0.70;;;;;;;;;;5025170;28;20062;-86
2022/09/13 10:36:23;;;;;;;3.42;0.77;;;;;;;;;;5025221;28;20038;-86
2022/09/13 10:39:16;;;;;;;2.25;0.90;;;;;;;;;;5024357;28;20030;-86
2022/09/13 10:41:47;;;;;;;1.10;0.90;;;;;;;;;;5017343;28;20045;-86
2022/09/13 10:44:29;;;;;;;2.22;0.90;;;;;;;;;;5024646;28;20094;-85
2022/09/13 10:46:57;;;;;;;4.30;0.90;;;;;;;;;;5028336;28;20106;-85
2022/09/13 10:49:37;;;;;;;1.30;1.00;;;;;;;;;;5024392;28;20096;-86
2022/09/13 10:52:24;;;;;;;0.93;0.73;;;;;;;;;;5028643;28;20037;-86
2022/09/13 10:54:50;;;;;;;3.35;1.00;;;;;;;;;;5021963;28;20054;-86
2022/09/13 10:57:30;;;;;;;0.90;0.70;;;;;;;;;;5024303;28;20080;-86
2022/09/13 10:59:55;;;;;;;1.30;0.90;;;;;;;;;;5024766;28;20048;-87
2022/09/13 11:02:30;;;;;;;1.90;0.90;;;;;;;;;;5024416;28;20038;-87
2022/09/13 11:05:19;;;;;;;0.77;0.75;;;;;;;;;;5025428;28;20073;-87
2022/09/13 11:08:13;;;;;;;1.65;1.00;;;;;;;;;;5023679;28;20038;-87
2022/09/13 11:10:50;;;;;;;1.08;0.88;;;;;;;;;;5022799;28;20034;-87
2022/09/13 11:13:34;;;;;;;2.80;0.90;;;;;;;;;;5023933;28;20081;-87
2022/09/13 11:16:28;;;;;;;3.25;0.85;;;;;;;;;;5024641;28;20033;-85
2022/09/13 11:18:53;;;;;;;;;;;;;;;;;;5021681;28;20038;-85
2022/09/13 11:21:24;;;;;;;1.52;0.80;;;;;;;;;;5022767;28;19919;-87
2022/09/13 11:24:38;;;;;;;1.25;0.77;;;;;;;;;;5022592;28;20042;-84
2022/09/13 11:27:16;;;;;;;1.73;1.00;;;;;;;;;;4962787;28;20053;-87
2022/09/13 11:29:53;;;;;;;1.35;0.80;;;;;;;;;;5023419;28;20068;-87
2022/09/13 11:32:31;;;;;;;2.72;0.90;;;;;;;;;;5023352;28;20084;-86
2022/09/13 11:35:30;;;;;;;1.25;0.80;;;;;;;;;;5021025;28;20041;-86
2022/09/13 11:38:48;;;;;;;2.38;0.90;;;;;;;;;;5021007;28;20034;-86
2022/09/13 11:41:41;;;;;;;4.85;1.00;;;;;;;;;;5019777;28;20049;-87
2022/09/13 11:44:16;;;;;;;3.10;0.80;;;;;;;;;;5022100;28;20094;-86
2022/09/13 11:47:19;;;;;;;7.53;0.95;;;;;;;;;;5022284;28;20276;-87
2022/09/13 11:50:13;;;;;;;3.35;0.90;;;;;;;;;;5020613;28;20406;-87
2022/09/13 11:53:03;;;;;;;2.20;0.80;;;;;;;;;;5023065;28;20030;-87
2022/09/13 11:55:34;;;;;;;2.22;0.90;;;;;;;;;;5022653;28;20117;-86
2022/09/13 11:58:09;;;;;;;2.17;0.90;;;;;;;;;;5023568;28;20041;-86
2022/09/13 12:00:41;;;;;;;2.30;0.80;;;;;;;;;;5023028;28;20410;-86
2022/09/13 12:03:09;;;;;;;1.75;0.80;;;;;;;;;;5022684;28;20038;-86
2022/09/13 12:05:43;;;;;;;2.83;1.00;;;;;;;;;;5022319;28;20040;-86
2022/09/13 12:08:11;;;;;;;1.60;0.90;;;;;;;;;;5023322;28;20059;-87
2022/09/13 12:11:01;;;;;;;3.00;0.80;;;;;;;;;;5022225;28;20040;-87
2022/09/13 12:13:30;;;;;;;1.17;0.88;;;;;;;;;;5022026;28;20105;-86
2022/09/13 12:16:06;;;;;;;1.98;1.02;;;;;;;;;;5022643;28;20135;-86
2022/09/13 12:18:39;;;;;;;1.75;0.95;;;;;;;;;;5022940;28;20044;-86
2022/09/13 12:21:15;;;;;;;1.35;1.00;;;;;;;;;;5021580;28;20044;-86
2022/09/13 12:24:05;;;;;;;2.00;0.90;;;;;;;;;;5021741;28;20065;-86
2022/09/13 12:26:55;;;;;;;4.00;1.30;;;;;;;;;;5019892;28;20037;-86
2022/09/13 12:29:30;;;;;;;2.42;0.95;;;;;;;;;;5022978;28;20033;-86
2022/09/13 12:32:01;;;;;;;2.13;0.82;;;;;;;;;;5025698;28;20037;-86
2022/09/13 12:34:44;;;;;;;1.90;1.00;;;;;;;;;;5023768;28;20068;-87
2022/09/13 12:37:32;;;;;;;1.80;0.90;;;;;;;;;;5024991;28;20038;-86
2022/09/13 12:40:25;;;;;;;2.72;1.13;;;;;;;;;;5024993;28;20029;-86
2022/09/13 12:43:07;;;;;;;3.53;0.90;;;;;;;;;;5026646;28;20094;-85
2022/09/13 12:45:41;;;;;;;4.05;0.90;;;;;;;;;;5024914;28;20506;-86
2022/09/13 12:48:25;;;;;;;2.55;1.00;;;;;;;;;;5023865;28;20044;-86
2022/09/13 12:51:09;;;;;;;2.03;0.90;;;;;;;;;;5029327;28;20034;-87
2022/09/13 12:53:56;;;;;;;4.18;1.10;;;;;;;;;;5026727;28;20034;-86
2022/09/13 12:56:45;;;;;;;2.13;0.90;;;;;;;;;;5026082;28;20049;-85
2022/09/13 12:59:49;;;;;;;1.45;0.95;;;;;;;;;;5028232;28;20072;-85
2022/09/13 13:02:37;;;;;;;1.60;1.05;;;;;;;;;;5027698;28;20402;-85
2022/09/13 13:05:26;;;;;;;2.58;0.88;;;;;;;;;;5025086;28;20405;-86
2022/09/13 13:08:05;;;;;;;1.58;0.95;;;;;;;;;;5027927;28;20037;-86
2022/09/13 13:10:40;;;;;;;1.35;0.90;;;;;;;;;;5024943;28;20096;-86
2022/09/13 13:13:33;;;;;;;1.30;0.90;;;;;;;;;;5027061;28;20022;-86
2022/09/13 13:16:22;;;;;;;1.50;0.90;;;;;;;;;;5024805;28;20034;-86
2022/09/13 13:18:51;;;;;;;1.90;0.90;;;;;;;;;;5024280;28;20063;-86
2022/09/13 13:21:31;;;;;;;1.38;0.80;;;;;;;;;;5026492;28;20021;-87
2022/09/13 13:24:15;;;;;;;7.85;1.00;;;;;;;;;;5026230;28;20064;-85
2022/09/13 13:26:55;;;;;;;1.35;0.90;;;;;;;;;;5027388;28;20037;-87
2022/09/13 13:29:31;;;;;;;1.70;1.10;;;;;;;;;;5024296;28;20046;-86
2022/09/13 13:31:59;;;;;;;3.13;0.95;;;;;;;;;;5025378;28;20033;-86
2022/09/13 13:34:40;;;;;;;2.13;0.90;;;;;;;;;;5024539;28;20379;-86
2022/09/13 13:37:09;;;;;;;2.80;1.00;;;;;;;;;;5025069;28;20081;-86
2022/09/13 13:39:46;;;;;;;1.35;0.80;;;;;;;;;;5025160;28;20045;-87
2022/09/13 13:42:26;;;;;;;1.63;0.90;;;;;;;;;;5025531;28;20051;-87
2022/09/13 13:44:52;;;;;;;5.03;1.17;;;;;;;;;;5026360;28;20037;-87
2022/09/13 13:47:17;;;;;;;2.72;0.90;;;;;;;;;;5028706;28;20042;-86
2022/09/13 13:50:18;;;;;;;2.80;1.10;;;;;;;;;;5030740;28;20101;-85
2022/09/13 13:52:47;;;;;;;1.58;0.93;;;;;;;;;;5030700;28;20509;-86
2022/09/13 13:55:39;;;;;;;3.20;1.00;;;;;;;;;;5029461;28;20045;-86
2022/09/13 13:58:20;;;;;;;2.53;0.95;;;;;;;;;;5026383;28;20494;-86
2022/09/13 14:00:49;;;;;;;1.55;0.90;;;;;;;;;;5026664;28;20030;-87
2022/09/13 14:03:39;;;;;;;4.78;1.00;;;;;;;;;;5026309;28;20041;-86
2022/09/13 14:06:11;;;;;;;2.28;1.00;;;;;;;;;;5026218;28;20037;-87
2022/09/13 14:09:00;;;;;;;1.48;0.93;;;;;;;;;;5024905;28;20069;-85
2022/09/13 14:11:41;;;;;;;2.15;0.90;;;;;;;;;;5023387;28;20048;-86
2022/09/13 14:14:26;;;;;;;2.05;0.80;;;;;;;;;;5024672;28;20036;-86
2022/09/13 14:17:14;;;;;;;1.90;0.90;;;;;;;;;;5026854;28;20445;-85
2022/09/13 14:19:44;;;;;;;7.65;1.00;;;;;;;;;;5026208;28;20087;-86
2022/09/13 14:22:19;;;;;;;1.20;0.90;;;;;;;;;;5026242;28;20037;-86
2022/09/13 14:24:52;;;;;;;2.60;0.90;;;;;;;;;;5025790;28;20634;-86
2022/09/13 14:27:20;;;;;;;2.33;0.98;;;;;;;;;;5025509;28;20045;-86
2022/09/13 14:29:54;;;;;;;1.15;0.90;;;;;;;;;;5026431;28;20042;-86
2022/09/13 14:32:26;;;;;;;1.73;0.95;;;;;;;;;;5026763;28;20038;-86
2022/09/13 14:35:02;;;;;;;3.55;1.00;;;;;;;;;;5027335;28;20046;-86
2022/09/13 14:37:28;;;;;;;5.00;1.30;;;;;;;;;;5025370;28;20121;-86
2022/09/13 14:40:12;;;;;;;2.08;1.00;;;;;;;;;;5027160;28;20038;-86
2022/09/13 14:42:41;;;;;;;3.65;1.00;;;;;;;;;;5026458;28;20119;-86
2022/09/13 14:45:12;;;;;;;2.67;1.00;;;;;;;;;;5025577;28;20021;-86
2022/09/13 14:47:52;;;;;;;1.40;0.90;;;;;;;;;;5026320;28;20030;-86
2022/09/13 14:50:23;;;;;;;1.67;0.90;;;;;;;;;;5026316;28;20061;-86
2022/09/13 14:52:56;;;;;;;2.97;0.90;;;;;;;;;;5024037;28;20046;-86
2022/09/13 14:55:27;;;;;;;;;;;;;;;;;;5026336;28;20049;-84
2022/09/13 14:57:58;;;;;;;1.20;0.95;;;;;;;;;;5026237;28;19924;-87
2022/09/13 15:00:25;;;;;;;4.15;1.00;;;;;;;;;;5032795;28;20097;-87
2022/09/13 15:02:53;;;;;;;1.23;1.00;;;;;;;;;;5028880;28;20036;-86
2022/09/13 15:05:23;;;;;;;2.30;0.98;;;;;;;;;;5027596;28;20025;-86
2022/09/13 15:07:48;;;;;;;2.42;1.00;;;;;;;;;;5026768;28;20053;-86
2022/09/13 15:10:17;;;;;;;3.28;0.90;;;;;;;;;;5027028;28;20069;-86
2022/09/13 15:12:52;;;;;;;2.33;1.23;;;;;;;;;;5029535;28;20344;-86
2022/09/13 15:15:18;;;;;;;2.83;1.45;;;;;;;;;;5026234;28;20034;-86
2022/09/13 15:17:53;;;;;;;7.35;1.10;;;;;;;;;;5030366;28;20105;-86
2022/09/13 15:20:21;;;;;;;5.65;1.00;;;;;;;;;;5031865;28;20045;-87
2022/09/13 15:22:47;;;;;;;3.25;1.10;;;;;;;;;;5027107;28;20041;-87
2022/09/13 15:25:28;;;;;;;5.20;0.90;;;;;;;;;;5025358;28;20089;-87